sensor_id;sensor_type;location;lat;lon;timestamp;pressure;altitude;pressure_sealevel;temperature;humidity
38780;BME280;29273;49.962;9.768;2023-07-20T00:00:48;99515.00;;;21.72;60.25
38780;BME280;29273;49.962;9.768;2023-07-20T00:03:19;99518.00;;;21.71;60.46
38780;BME280;29273;49.962;9.768;2023-07-20T00:05:49;99516.66;;;21.68;60.35
38780;BME280;29273;49.962;9.768;2023-07-20T00:08:15;99511.03;;;21.65;60.71
38780;BME280;29273;49.962;9.768;2023-07-20T00:10:41;99513.22;;;21.62;60.99
38780;BME280;29273;49.962;9.768;2023-07-20T00:13:07;99514.59;;;21.60;60.96
38780;BME280;29273;49.962;9.768;2023-07-20T00:15:32;99521.84;;;21.59;61.37
38780;BME280;29273;49.962;9.768;2023-07-20T00:17:58;99518.34;;;21.59;61.38
38780;BME280;29273;49.962;9.768;2023-07-20T00:20:24;99519.44;;;21.58;61.20
38780;BME280;29273;49.962;9.768;2023-07-20T00:22:50;99519.44;;;21.58;61.14
38780;BME280;29273;49.962;9.768;2023-07-20T00:25:16;99517.84;;;21.57;60.95
38780;BME280;29273;49.962;9.768;2023-07-20T00:27:42;99526.72;;;21.57;60.70
38780;BME280;29273;49.962;9.768;2023-07-20T00:30:08;99525.38;;;21.55;61.02
38780;BME280;29273;49.962;9.768;2023-07-20T00:32:33;99520.31;;;21.53;60.93
38780;BME280;29273;49.962;9.768;2023-07-20T00:34:59;99516.00;;;21.52;60.61
38780;BME280;29273;49.962;9.768;2023-07-20T00:37:24;99516.25;;;21.51;60.60
38780;BME280;29273;49.962;9.768;2023-07-20T00:39:50;99524.34;;;21.51;60.53
38780;BME280;29273;49.962;9.768;2023-07-20T00:42:17;99526.53;;;21.49;60.47
38780;BME280;29273;49.962;9.768;2023-07-20T00:44:44;99528.63;;;21.47;60.54
38780;BME280;29273;49.962;9.768;2023-07-20T00:47:10;99533.22;;;21.46;60.40
38780;BME280;29273;49.962;9.768;2023-07-20T00:49:35;99538.09;;;21.44;60.54
38780;BME280;29273;49.962;9.768;2023-07-20T00:52:03;99527.59;;;21.42;60.51
38780;BME280;29273;49.962;9.768;2023-07-20T00:54:31;99532.19;;;21.42;60.48
38780;BME280;29273;49.962;9.768;2023-07-20T00:56:56;99526.56;;;21.38;60.65
38780;BME280;29273;49.962;9.768;2023-07-20T00:59:23;99531.13;;;21.38;60.48
38780;BME280;29273;49.962;9.768;2023-07-20T01:01:48;99536.28;;;21.34;60.49
38780;BME280;29273;49.962;9.768;2023-07-20T01:04:15;99537.34;;;21.33;60.60
38780;BME280;29273;49.962;9.768;2023-07-20T01:06:49;99537.91;;;21.35;59.92
38780;BME280;29273;49.962;9.768;2023-07-20T01:09:28;99530.38;;;21.32;59.80
38780;BME280;29273;49.962;9.768;2023-07-20T01:14:25;99535.28;;;21.20;59.96
38780;BME280;29273;49.962;9.768;2023-07-20T01:16:51;99533.97;;;21.17;60.04
38780;BME280;29273;49.962;9.768;2023-07-20T01:19:19;99528.63;;;21.12;59.95
38780;BME280;29273;49.962;9.768;2023-07-20T01:21:59;99534.25;;;21.16;59.56
38780;BME280;29273;49.962;9.768;2023-07-20T01:27:32;99536.22;;;21.05;59.21
38780;BME280;29273;49.962;9.768;2023-07-20T01:30:08;99529.59;;;20.82;59.55
38780;BME280;29273;49.962;9.768;2023-07-20T01:32:40;99533.53;;;20.95;59.00
38780;BME280;29273;49.962;9.768;2023-07-20T01:35:09;99543.00;;;20.92;59.15
38780;BME280;29273;49.962;9.768;2023-07-20T01:37:41;99534.94;;;20.87;59.29
38780;BME280;29273;49.962;9.768;2023-07-20T01:40:09;99535.78;;;20.82;59.13
38780;BME280;29273;49.962;9.768;2023-07-20T01:42:35;99535.78;;;20.77;58.91
38780;BME280;29273;49.962;9.768;2023-07-20T01:45:00;99539.03;;;20.74;59.05
38780;BME280;29273;49.962;9.768;2023-07-20T01:47:26;99539.56;;;20.71;59.38
38780;BME280;29273;49.962;9.768;2023-07-20T01:49:51;99535.84;;;20.67;59.46
38780;BME280;29273;49.962;9.768;2023-07-20T01:52:17;99535.59;;;20.63;59.50
38780;BME280;29273;49.962;9.768;2023-07-20T01:54:42;99537.44;;;20.63;59.53
38780;BME280;29273;49.962;9.768;2023-07-20T01:57:08;99542.56;;;20.59;59.52
38780;BME280;29273;49.962;9.768;2023-07-20T01:59:33;99536.66;;;20.57;59.87
38780;BME280;29273;49.962;9.768;2023-07-20T02:01:59;99542.56;;;20.54;59.76
38780;BME280;29273;49.962;9.768;2023-07-20T02:04:24;99542.03;;;20.52;59.27
38780;BME280;29273;49.962;9.768;2023-07-20T02:06:49;99542.31;;;20.50;59.55
38780;BME280;29273;49.962;9.768;2023-07-20T02:09:15;99546.06;;;20.49;59.68
38780;BME280;29273;49.962;9.768;2023-07-20T02:11:41;99545.81;;;20.46;59.64
38780;BME280;29273;49.962;9.768;2023-07-20T02:14:06;99540.72;;;20.44;59.39
38780;BME280;29273;49.962;9.768;2023-07-20T02:16:32;99536.97;;;20.40;59.03
38780;BME280;29273;49.962;9.768;2023-07-20T02:18:57;99538.31;;;20.38;59.26
38780;BME280;29273;49.962;9.768;2023-07-20T02:21:23;99536.44;;;20.33;59.16
38780;BME280;29273;49.962;9.768;2023-07-20T02:23:49;99538.59;;;20.31;59.09
38780;BME280;29273;49.962;9.768;2023-07-20T02:26:14;99546.94;;;20.29;59.38
38780;BME280;29273;49.962;9.768;2023-07-20T02:28:40;99546.69;;;20.26;59.08
38780;BME280;29273;49.962;9.768;2023-07-20T02:31:06;99550.44;;;20.25;58.60
38780;BME280;29273;49.962;9.768;2023-07-20T02:33:32;99559.06;;;20.22;58.91
38780;BME280;29273;49.962;9.768;2023-07-20T02:35:57;99552.59;;;20.18;58.79
38780;BME280;29273;49.962;9.768;2023-07-20T02:38:23;99553.94;;;20.15;58.86
38780;BME280;29273;49.962;9.768;2023-07-20T02:40:49;99545.34;;;20.13;58.89
38780;BME280;29273;49.962;9.768;2023-07-20T02:43:15;99549.41;;;20.10;58.77
38780;BME280;29273;49.962;9.768;2023-07-20T02:45:40;99551.53;;;20.08;59.01
38780;BME280;29273;49.962;9.768;2023-07-20T02:48:08;99549.13;;;20.07;58.95
38780;BME280;29273;49.962;9.768;2023-07-20T02:50:33;99548.06;;;20.03;58.99
38780;BME280;29273;49.962;9.768;2023-07-20T02:53:00;99552.09;;;20.00;58.85
38780;BME280;29273;49.962;9.768;2023-07-20T02:55:26;99554.22;;;19.98;59.00
38780;BME280;29273;49.962;9.768;2023-07-20T02:57:51;99559.06;;;19.96;58.41
38780;BME280;29273;49.962;9.768;2023-07-20T03:00:17;99555.34;;;19.92;58.33
38780;BME280;29273;49.962;9.768;2023-07-20T03:02:45;99564.47;;;19.91;58.54
38780;BME280;29273;49.962;9.768;2023-07-20T03:05:13;99558.56;;;19.89;58.68
38780;BME280;29273;49.962;9.768;2023-07-20T03:07:39;99568.22;;;19.85;58.81
38780;BME280;29273;49.962;9.768;2023-07-20T03:10:05;99557.72;;;19.83;58.75
38780;BME280;29273;49.962;9.768;2023-07-20T03:12:35;99560.16;;;19.80;58.78
38780;BME280;29273;49.962;9.768;2023-07-20T03:15:04;99556.13;;;19.82;58.68
38780;BME280;29273;49.962;9.768;2023-07-20T03:17:30;99556.63;;;19.74;58.98
38780;BME280;29273;49.962;9.768;2023-07-20T03:19:56;99560.66;;;19.71;58.84
38780;BME280;29273;49.962;9.768;2023-07-20T03:22:22;99568.19;;;19.69;58.66
38780;BME280;29273;49.962;9.768;2023-07-20T03:24:49;99560.66;;;19.66;58.55
38780;BME280;29273;49.962;9.768;2023-07-20T03:27:15;99558.25;;;19.65;58.80
38780;BME280;29273;49.962;9.768;2023-07-20T03:29:40;99561.19;;;19.63;58.83
38780;BME280;29273;49.962;9.768;2023-07-20T03:32:06;99577.56;;;19.62;58.79
38780;BME280;29273;49.962;9.768;2023-07-20T03:34:32;99577.84;;;19.60;58.57
38780;BME280;29273;49.962;9.768;2023-07-20T03:36:57;99587.25;;;19.57;59.12
38780;BME280;29273;49.962;9.768;2023-07-20T03:39:23;99577.84;;;19.55;59.08
38780;BME280;29273;49.962;9.768;2023-07-20T03:41:48;99580.78;;;19.53;59.10
38780;BME280;29273;49.962;9.768;2023-07-20T03:44:14;99582.94;;;19.51;58.79
38780;BME280;29273;49.962;9.768;2023-07-20T03:46:39;99579.72;;;19.49;58.79
38780;BME280;29273;49.962;9.768;2023-07-20T03:49:04;99582.66;;;19.48;59.20
38780;BME280;29273;49.962;9.768;2023-07-20T03:51:31;99590.97;;;19.46;59.00
38780;BME280;29273;49.962;9.768;2023-07-20T03:53:57;99584.00;;;19.45;59.15
38780;BME280;29273;49.962;9.768;2023-07-20T03:56:23;99598.25;;;19.46;59.46
38780;BME280;29273;49.962;9.768;2023-07-20T03:58:49;99591.25;;;19.45;59.73
38780;BME280;29273;49.962;9.768;2023-07-20T04:01:15;99587.75;;;19.44;59.16
38780;BME280;29273;49.962;9.768;2023-07-20T04:03:42;99597.44;;;19.45;59.19
38780;BME280;29273;49.962;9.768;2023-07-20T04:06:08;99598.50;;;19.44;59.45
38780;BME280;29273;49.962;9.768;2023-07-20T04:08:34;99604.94;;;19.43;59.11
38780;BME280;29273;49.962;9.768;2023-07-20T04:11:01;99608.97;;;19.46;58.98
38780;BME280;29273;49.962;9.768;2023-07-20T04:13:27;99603.34;;;19.42;59.57
38780;BME280;29273;49.962;9.768;2023-07-20T04:15:53;99608.16;;;19.40;59.71
38780;BME280;29273;49.962;9.768;2023-07-20T04:18:18;99604.94;;;19.38;59.66
38780;BME280;29273;49.962;9.768;2023-07-20T04:20:45;99607.34;;;19.39;59.90
38780;BME280;29273;49.962;9.768;2023-07-20T04:23:10;99609.50;;;19.37;59.97
38780;BME280;29273;49.962;9.768;2023-07-20T04:25:36;99617.56;;;19.37;60.12
38780;BME280;29273;49.962;9.768;2023-07-20T04:28:06;99610.28;;;19.38;59.86
38780;BME280;29273;49.962;9.768;2023-07-20T04:30:35;99614.59;;;19.39;60.11
38780;BME280;29273;49.962;9.768;2023-07-20T04:33:02;99612.97;;;19.38;59.91
38780;BME280;29273;49.962;9.768;2023-07-20T04:35:47;99617.81;;;19.41;59.39
38780;BME280;29273;49.962;9.768;2023-07-20T04:38:16;99620.25;;;19.37;60.12
38780;BME280;29273;49.962;9.768;2023-07-20T04:40:47;99620.00;;;19.44;59.95
38780;BME280;29273;49.962;9.768;2023-07-20T04:43:17;99623.72;;;19.43;59.62
38780;BME280;29273;49.962;9.768;2023-07-20T04:45:43;99622.91;;;19.37;60.07
38780;BME280;29273;49.962;9.768;2023-07-20T04:48:11;99623.47;;;19.39;60.39
38780;BME280;29273;49.962;9.768;2023-07-20T04:50:45;99621.88;;;19.38;60.57
38780;BME280;29273;49.962;9.768;2023-07-20T04:53:12;99615.94;;;19.41;60.60
38780;BME280;29273;49.962;9.768;2023-07-20T04:55:39;99619.19;;;19.44;60.55
38780;BME280;29273;49.962;9.768;2023-07-20T04:58:05;99626.16;;;19.45;60.53
38780;BME280;29273;49.962;9.768;2023-07-20T05:00:38;99623.47;;;19.50;60.58
38780;BME280;29273;49.962;9.768;2023-07-20T05:03:04;99621.31;;;19.47;60.87
38780;BME280;29273;49.962;9.768;2023-07-20T05:05:30;99617.31;;;19.49;61.15
38780;BME280;29273;49.962;9.768;2023-07-20T05:07:56;99621.34;;;19.52;61.27
38780;BME280;29273;49.962;9.768;2023-07-20T05:10:23;99623.50;;;19.55;61.30
38780;BME280;29273;49.962;9.768;2023-07-20T05:12:49;99621.38;;;19.57;61.45
38780;BME280;29273;49.962;9.768;2023-07-20T05:15:14;99623.50;;;19.60;61.56
38780;BME280;29273;49.962;9.768;2023-07-20T05:17:41;99623.78;;;19.64;61.37
38780;BME280;29273;49.962;9.768;2023-07-20T05:20:07;99620.84;;;19.65;61.12
38780;BME280;29273;49.962;9.768;2023-07-20T05:22:35;99621.91;;;19.69;61.12
38780;BME280;29273;49.962;9.768;2023-07-20T05:25:07;99619.50;;;19.73;60.98
38780;BME280;29273;49.962;9.768;2023-07-20T05:27:33;99623.00;;;19.73;61.22
38780;BME280;29273;49.962;9.768;2023-07-20T05:29:59;99620.06;;;19.75;61.09
38780;BME280;29273;49.962;9.768;2023-07-20T05:32:24;99620.63;;;19.77;60.80
38780;BME280;29273;49.962;9.768;2023-07-20T05:34:54;99620.91;;;19.86;61.02
38780;BME280;29273;49.962;9.768;2023-07-20T05:37:20;99616.06;;;19.83;61.17
38780;BME280;29273;49.962;9.768;2023-07-20T05:39:45;99616.59;;;19.85;60.96
38780;BME280;29273;49.962;9.768;2023-07-20T05:42:11;99608.00;;;19.88;61.18
38780;BME280;29273;49.962;9.768;2023-07-20T05:44:36;99603.16;;;19.90;61.08
38780;BME280;29273;49.962;9.768;2023-07-20T05:47:02;99605.31;;;19.93;60.83
38780;BME280;29273;49.962;9.768;2023-07-20T05:49:28;99602.09;;;19.96;60.62
38780;BME280;29273;49.962;9.768;2023-07-20T05:51:54;99604.75;;;20.01;60.82
38780;BME280;29273;49.962;9.768;2023-07-20T05:54:21;99607.19;;;20.03;60.29
38780;BME280;29273;49.962;9.768;2023-07-20T05:56:46;99612.81;;;20.06;60.39
38780;BME280;29273;49.962;9.768;2023-07-20T05:59:12;99606.13;;;20.09;60.88
38780;BME280;29273;49.962;9.768;2023-07-20T06:01:38;99602.91;;;20.12;60.79
38780;BME280;29273;49.962;9.768;2023-07-20T06:04:04;99606.13;;;20.14;60.54
38780;BME280;29273;49.962;9.768;2023-07-20T06:06:29;99608.28;;;20.17;60.90
38780;BME280;29273;49.962;9.768;2023-07-20T06:08:54;99612.28;;;20.20;60.67
38780;BME280;29273;49.962;9.768;2023-07-20T06:11:20;99600.19;;;20.22;60.16
38780;BME280;29273;49.962;9.768;2023-07-20T06:13:46;99599.66;;;20.25;59.75
38780;BME280;29273;49.962;9.768;2023-07-20T06:16:11;99601.81;;;20.28;60.40
38780;BME280;29273;49.962;9.768;2023-07-20T06:18:37;99605.56;;;20.32;60.28
38780;BME280;29273;49.962;9.768;2023-07-20T06:21:02;99604.22;;;20.35;60.56
38780;BME280;29273;49.962;9.768;2023-07-20T06:23:28;99594.53;;;20.39;60.45
38780;BME280;29273;49.962;9.768;2023-07-20T06:25:53;99605.25;;;20.44;60.32
38780;BME280;29273;49.962;9.768;2023-07-20T06:28:18;99606.63;;;20.47;59.92
38780;BME280;29273;49.962;9.768;2023-07-20T06:30:44;99605.78;;;20.51;59.41
38780;BME280;29273;49.962;9.768;2023-07-20T06:33:09;99612.25;;;20.56;59.70
38780;BME280;29273;49.962;9.768;2023-07-20T06:35:35;99609.00;;;20.59;58.81
38780;BME280;29273;49.962;9.768;2023-07-20T06:38:01;99609.03;;;20.64;59.20
38780;BME280;29273;49.962;9.768;2023-07-20T06:40:30;99611.97;;;20.67;58.37
38780;BME280;29273;49.962;9.768;2023-07-20T06:42:55;99613.03;;;20.72;57.87
38780;BME280;29273;49.962;9.768;2023-07-20T06:45:22;99614.38;;;20.74;57.34
38780;BME280;29273;49.962;9.768;2023-07-20T06:47:47;99614.63;;;20.78;57.31
38780;BME280;29273;49.962;9.768;2023-07-20T06:50:13;99613.81;;;20.82;58.49
38780;BME280;29273;49.962;9.768;2023-07-20T06:52:39;99618.66;;;20.85;57.69
38780;BME280;29273;49.962;9.768;2023-07-20T06:55:06;99614.31;;;20.89;58.23
38780;BME280;29273;49.962;9.768;2023-07-20T06:57:32;99618.09;;;20.94;58.22
38780;BME280;29273;49.962;9.768;2023-07-20T06:59:57;99617.53;;;20.97;58.17
38780;BME280;29273;49.962;9.768;2023-07-20T07:02:23;99615.91;;;21.01;58.57
38780;BME280;29273;49.962;9.768;2023-07-20T07:04:48;99618.84;;;21.04;58.37
38780;BME280;29273;49.962;9.768;2023-07-20T07:07:14;99624.19;;;21.10;58.04
38780;BME280;29273;49.962;9.768;2023-07-20T07:09:40;99620.69;;;21.14;56.28
38780;BME280;29273;49.962;9.768;2023-07-20T07:12:06;99622.28;;;21.20;56.21
38780;BME280;29273;49.962;9.768;2023-07-20T07:14:32;99618.75;;;21.25;56.02
38780;BME280;29273;49.962;9.768;2023-07-20T07:16:57;99620.59;;;21.30;55.42
38780;BME280;29273;49.962;9.768;2023-07-20T07:19:23;99619.78;;;21.34;54.63
38780;BME280;29273;49.962;9.768;2023-07-20T07:21:48;99623.78;;;21.42;55.10
38780;BME280;29273;49.962;9.768;2023-07-20T07:24:14;99622.69;;;21.48;55.14
38780;BME280;29273;49.962;9.768;2023-07-20T07:26:39;99618.09;;;21.54;54.76
38780;BME280;29273;49.962;9.768;2023-07-20T07:29:05;99630.16;;;21.61;53.83
38780;BME280;29273;49.962;9.768;2023-07-20T07:31:33;99627.44;;;21.67;53.05
38780;BME280;29273;49.962;9.768;2023-07-20T07:33:58;99628.72;;;21.74;53.40
38780;BME280;29273;49.962;9.768;2023-07-20T07:36:24;99619.00;;;21.78;52.93
38780;BME280;29273;49.962;9.768;2023-07-20T07:38:50;99619.75;;;21.84;52.63
38780;BME280;29273;49.962;9.768;2023-07-20T07:41:16;99618.09;;;21.88;51.93
38780;BME280;29273;49.962;9.768;2023-07-20T07:43:41;99613.78;;;21.92;52.59
38780;BME280;29273;49.962;9.768;2023-07-20T07:46:07;99620.50;;;21.95;52.04
38780;BME280;29273;49.962;9.768;2023-07-20T07:48:33;99617.22;;;21.98;51.51
38780;BME280;29273;49.962;9.768;2023-07-20T07:50:58;99613.97;;;22.01;51.30
38780;BME280;29273;49.962;9.768;2023-07-20T07:53:24;99624.72;;;22.06;51.44
38780;BME280;29273;49.962;9.768;2023-07-20T07:55:51;99625.78;;;22.10;51.62
38780;BME280;29273;49.962;9.768;2023-07-20T07:58:17;99624.94;;;22.15;51.50
38780;BME280;29273;49.962;9.768;2023-07-20T08:00:42;99613.28;;;22.20;51.41
38780;BME280;29273;49.962;9.768;2023-07-20T08:03:10;99613.22;;;22.25;51.33
38780;BME280;29273;49.962;9.768;2023-07-20T08:05:35;99607.53;;;22.31;51.30
38780;BME280;29273;49.962;9.768;2023-07-20T08:08:02;99617.41;;;22.41;51.72
38780;BME280;29273;49.962;9.768;2023-07-20T08:10:29;99612.25;;;22.45;50.03
38780;BME280;29273;49.962;9.768;2023-07-20T08:12:55;99615.72;;;22.50;49.51
38780;BME280;29273;49.962;9.768;2023-07-20T08:15:21;99622.13;;;22.54;48.08
38780;BME280;29273;49.962;9.768;2023-07-20T08:17:46;99612.13;;;22.60;49.50
38780;BME280;29273;49.962;9.768;2023-07-20T08:20:14;99608.53;;;22.65;49.30
38780;BME280;29273;49.962;9.768;2023-07-20T08:22:39;99619.31;;;22.70;49.71
38780;BME280;29273;49.962;9.768;2023-07-20T08:25:06;99616.00;;;22.73;49.62
38780;BME280;29273;49.962;9.768;2023-07-20T08:27:31;99624.91;;;22.73;48.58
38780;BME280;29273;49.962;9.768;2023-07-20T08:29:57;99620.31;;;22.74;48.81
38780;BME280;29273;49.962;9.768;2023-07-20T08:32:22;99619.53;;;22.73;48.85
38780;BME280;29273;49.962;9.768;2023-07-20T08:34:48;99622.22;;;22.73;48.49
38780;BME280;29273;49.962;9.768;2023-07-20T08:37:14;99616.81;;;22.73;48.32
38780;BME280;29273;49.962;9.768;2023-07-20T08:39:39;99623.03;;;22.74;48.93
38780;BME280;29273;49.962;9.768;2023-07-20T08:42:05;99618.97;;;22.77;48.72
38780;BME280;29273;49.962;9.768;2023-07-20T08:44:35;99602.91;;;22.85;50.50
38780;BME280;29273;49.962;9.768;2023-07-20T08:47:02;99616.13;;;22.87;48.83
38780;BME280;29273;49.962;9.768;2023-07-20T08:49:30;99615.28;;;22.91;47.67
38780;BME280;29273;49.962;9.768;2023-07-20T08:51:56;99621.41;;;22.97;46.50
38780;BME280;29273;49.962;9.768;2023-07-20T08:54:23;99617.03;;;23.01;45.96
38780;BME280;29273;49.962;9.768;2023-07-20T08:56:49;99620.50;;;23.07;46.00
38780;BME280;29273;49.962;9.768;2023-07-20T08:59:17;99618.25;;;23.14;48.64
38780;BME280;29273;49.962;9.768;2023-07-20T09:01:43;99619.59;;;23.17;48.06
38780;BME280;29273;49.962;9.768;2023-07-20T09:04:10;99623.28;;;23.21;47.82
38780;BME280;29273;49.962;9.768;2023-07-20T09:06:36;99622.72;;;23.24;45.63
38780;BME280;29273;49.962;9.768;2023-07-20T09:09:01;99621.34;;;23.26;46.10
38780;BME280;29273;49.962;9.768;2023-07-20T09:11:27;99618.03;;;23.30;46.11
38780;BME280;29273;49.962;9.768;2023-07-20T09:14:06;99617.59;;;23.41;49.35
38780;BME280;29273;49.962;9.768;2023-07-20T09:16:32;99614.41;;;23.39;45.96
38780;BME280;29273;49.962;9.768;2023-07-20T09:18:58;99621.34;;;23.45;46.29
38780;BME280;29273;49.962;9.768;2023-07-20T09:21:29;99612.81;;;23.57;47.90
38780;BME280;29273;49.962;9.768;2023-07-20T09:23:56;99611.19;;;23.56;44.94
38780;BME280;29273;49.962;9.768;2023-07-20T09:26:22;99618.72;;;23.59;43.48
38780;BME280;29273;49.962;9.768;2023-07-20T09:28:50;99617.34;;;23.62;44.24
38780;BME280;29273;49.962;9.768;2023-07-20T09:31:18;99618.34;;;23.66;44.98
38780;BME280;29273;49.962;9.768;2023-07-20T09:33:45;99624.56;;;23.67;44.91
38780;BME280;29273;49.962;9.768;2023-07-20T09:36:11;99622.66;;;23.67;43.84
38780;BME280;29273;49.962;9.768;2023-07-20T09:38:37;99622.38;;;23.69;43.95
38780;BME280;29273;49.962;9.768;2023-07-20T09:41:05;99622.50;;;23.77;46.38
38780;BME280;29273;49.962;9.768;2023-07-20T09:43:32;99622.50;;;23.77;45.20
38780;BME280;29273;49.962;9.768;2023-07-20T09:45:59;99613.09;;;23.75;43.83
38780;BME280;29273;49.962;9.768;2023-07-20T09:48:25;99616.88;;;23.74;43.81
38780;BME280;29273;49.962;9.768;2023-07-20T09:50:52;99616.09;;;23.73;42.70
38780;BME280;29273;49.962;9.768;2023-07-20T09:53:18;99609.06;;;23.72;42.78
38780;BME280;29273;49.962;9.768;2023-07-20T09:55:47;99610.59;;;23.78;45.81
38780;BME280;29273;49.962;9.768;2023-07-20T09:58:14;99607.97;;;23.73;43.06
38780;BME280;29273;49.962;9.768;2023-07-20T10:00:41;99595.19;;;23.79;43.49
38780;BME280;29273;49.962;9.768;2023-07-20T10:03:14;99603.72;;;23.86;44.93
38780;BME280;29273;49.962;9.768;2023-07-20T10:05:43;99614.19;;;23.93;44.93
38780;BME280;29273;49.962;9.768;2023-07-20T10:08:12;99609.78;;;23.97;42.36
38780;BME280;29273;49.962;9.768;2023-07-20T10:10:40;99601.22;;;24.09;44.79
38780;BME280;29273;49.962;9.768;2023-07-20T10:13:27;99604.31;;;24.16;45.08
38780;BME280;29273;49.962;9.768;2023-07-20T10:15:57;99599.41;;;24.18;42.51
38780;BME280;29273;49.962;9.768;2023-07-20T10:21:19;99594.13;;;24.27;43.00
38780;BME280;29273;49.962;9.768;2023-07-20T10:23:48;99597.06;;;24.30;42.81
38780;BME280;29273;49.962;9.768;2023-07-20T10:26:14;99594.53;;;24.34;41.39
38780;BME280;29273;49.962;9.768;2023-07-20T10:28:40;99580.13;;;24.38;42.06
38780;BME280;29273;49.962;9.768;2023-07-20T10:31:08;99573.72;;;24.48;43.26
38780;BME280;29273;49.962;9.768;2023-07-20T10:33:36;99576.13;;;24.50;41.19
38780;BME280;29273;49.962;9.768;2023-07-20T10:36:03;99572.75;;;24.58;40.20
38780;BME280;29273;49.962;9.768;2023-07-20T10:38:42;99571.13;;;24.71;44.01
38780;BME280;29273;49.962;9.768;2023-07-20T10:41:27;99570.72;;;24.78;45.12
38780;BME280;29273;49.962;9.768;2023-07-20T10:44:01;99570.13;;;24.81;43.54
38780;BME280;29273;49.962;9.768;2023-07-20T10:46:41;99580.06;;;24.85;43.65
38780;BME280;29273;49.962;9.768;2023-07-20T10:49:09;99567.91;;;24.83;41.64
38780;BME280;29273;49.962;9.768;2023-07-20T10:51:44;99568.03;;;24.91;43.12
38780;BME280;29273;49.962;9.768;2023-07-20T10:56:41;99554.97;;;24.93;40.62
38780;BME280;29273;49.962;9.768;2023-07-20T10:59:19;99561.16;;;25.08;43.90
38780;BME280;29273;49.962;9.768;2023-07-20T11:01:46;99553.84;;;25.08;41.15
38780;BME280;29273;49.962;9.768;2023-07-20T11:04:12;99559.44;;;25.12;39.94
38780;BME280;29273;49.962;9.768;2023-07-20T11:06:42;99560.25;;;25.26;42.59
38780;BME280;29273;49.962;9.768;2023-07-20T11:09:15;99559.13;;;25.27;41.29
38780;BME280;29273;49.962;9.768;2023-07-20T11:14:23;99570.44;;;25.43;42.99
38780;BME280;29273;49.962;9.768;2023-07-20T11:16:50;99557.66;;;25.44;39.82
38780;BME280;29273;49.962;9.768;2023-07-20T11:21:44;99558.56;;;25.53;40.41
38780;BME280;29273;49.962;9.768;2023-07-20T11:24:10;99566.69;;;25.53;39.20
38780;BME280;29273;49.962;9.768;2023-07-20T11:26:52;99565.44;;;25.59;42.84
38780;BME280;29273;49.962;9.768;2023-07-20T11:29:19;99557.91;;;25.56;40.00
38780;BME280;29273;49.962;9.768;2023-07-20T11:31:46;99555.00;;;25.53;38.73
38780;BME280;29273;49.962;9.768;2023-07-20T11:34:14;99558.56;;;25.53;39.05
38780;BME280;29273;49.962;9.768;2023-07-20T11:36:41;99558.03;;;25.51;38.96
38780;BME280;29273;49.962;9.768;2023-07-20T11:39:11;99555.84;;;25.53;40.77
38780;BME280;29273;49.962;9.768;2023-07-20T11:41:38;99555.75;;;25.44;38.40
38780;BME280;29273;49.962;9.768;2023-07-20T11:44:05;99555.56;;;25.41;38.10
38780;BME280;29273;49.962;9.768;2023-07-20T11:46:39;99557.00;;;25.38;38.88
38780;BME280;29273;49.962;9.768;2023-07-20T11:49:05;99546.47;;;25.37;38.36
38780;BME280;29273;49.962;9.768;2023-07-20T11:51:31;99546.47;;;25.37;37.89
38780;BME280;29273;49.962;9.768;2023-07-20T11:53:58;99538.50;;;25.40;38.06
38780;BME280;29273;49.962;9.768;2023-07-20T11:56:25;99538.69;;;25.44;38.59
38780;BME280;29273;49.962;9.768;2023-07-20T11:58:54;99543.19;;;25.48;40.98
38780;BME280;29273;49.962;9.768;2023-07-20T12:01:20;99545.44;;;25.46;37.44
38780;BME280;29273;49.962;9.768;2023-07-20T12:03:47;99541.78;;;25.51;38.48
38780;BME280;29273;49.962;9.768;2023-07-20T12:06:13;99535.84;;;25.49;36.37
38780;BME280;29273;49.962;9.768;2023-07-20T12:08:40;99530.91;;;25.51;36.58
38780;BME280;29273;49.962;9.768;2023-07-20T12:11:07;99532.53;;;25.52;35.86
38780;BME280;29273;49.962;9.768;2023-07-20T12:13:41;99529.09;;;25.60;38.63
38780;BME280;29273;49.962;9.768;2023-07-20T12:16:15;99528.97;;;25.65;39.72
38780;BME280;29273;49.962;9.768;2023-07-20T12:18:42;99535.31;;;25.61;36.81
38780;BME280;29273;49.962;9.768;2023-07-20T12:21:09;99533.06;;;25.63;35.39
38780;BME280;29273;49.962;9.768;2023-07-20T12:23:37;99528.03;;;25.70;37.07
38780;BME280;29273;49.962;9.768;2023-07-20T12:26:09;99526.00;;;25.76;37.98
38780;BME280;29273;49.962;9.768;2023-07-20T12:28:39;99522.34;;;25.80;38.84
38780;BME280;29273;49.962;9.768;2023-07-20T12:31:06;99511.50;;;25.80;35.15
38780;BME280;29273;49.962;9.768;2023-07-20T12:33:32;99520.16;;;25.91;35.08
38780;BME280;29273;49.962;9.768;2023-07-20T12:35:58;99510.19;;;26.00;33.81
38780;BME280;29273;49.962;9.768;2023-07-20T12:38:25;99516.47;;;26.10;34.09
38780;BME280;29273;49.962;9.768;2023-07-20T12:40:51;99505.66;;;26.18;33.68
38780;BME280;29273;49.962;9.768;2023-07-20T12:43:16;99518.47;;;26.27;32.76
38780;BME280;29273;49.962;9.768;2023-07-20T12:45:42;99508.72;;;26.34;34.39
38780;BME280;29273;49.962;9.768;2023-07-20T12:48:08;99508.59;;;26.39;34.04
38780;BME280;29273;49.962;9.768;2023-07-20T12:50:34;99512.59;;;26.42;33.23
38780;BME280;29273;49.962;9.768;2023-07-20T12:52:59;99500.44;;;26.39;33.08
38780;BME280;29273;49.962;9.768;2023-07-20T12:55:25;99499.66;;;26.39;32.84
38780;BME280;29273;49.962;9.768;2023-07-20T12:57:50;99511.63;;;26.38;33.19
38780;BME280;29273;49.962;9.768;2023-07-20T13:00:16;99513.53;;;26.37;33.17
38780;BME280;29273;49.962;9.768;2023-07-20T13:02:42;99501.56;;;26.38;33.78
38780;BME280;29273;49.962;9.768;2023-07-20T13:05:08;99500.44;;;26.39;33.30
38780;BME280;29273;49.962;9.768;2023-07-20T13:07:38;99504.13;;;26.44;33.18
38780;BME280;29273;49.962;9.768;2023-07-20T13:10:05;99505.41;;;26.46;33.08
38780;BME280;29273;49.962;9.768;2023-07-20T13:12:33;99494.28;;;26.56;35.00
38780;BME280;29273;49.962;9.768;2023-07-20T13:14:59;99499.41;;;26.58;32.37